sensor_id;sensor_type;location;lat;lon;timestamp;temperature;humidity
8261;DHT22;64115;50.170;8.242;2023-02-22T00:00:15;7.50;99.90
8261;DHT22;64115;50.170;8.242;2023-02-22T00:02:48;7.40;99.90
8261;DHT22;64115;50.170;8.242;2023-02-22T00:05:16;7.30;99.90
8261;DHT22;64115;50.170;8.242;2023-02-22T00:07:45;7.30;99.90
8261;DHT22;64115;50.170;8.242;2023-02-22T00:10:14;7.40;99.90
8261;DHT22;64115;50.170;8.242;2023-02-22T00:12:46;7.40;99.90
8261;DHT22;64115;50.170;8.242;2023-02-22T00:15:15;7.50;99.90
8261;DHT22;64115;50.170;8.242;2023-02-22T00:17:42;7.50;99.90
8261;DHT22;64115;50.170;8.242;2023-02-22T00:20:10;7.60;99.90
8261;DHT22;64115;50.170;8.242;2023-02-22T00:22:41;7.50;99.90
8261;DHT22;64115;50.170;8.242;2023-02-22T00:25:12;7.40;99.90
8261;DHT22;64115;50.170;8.242;2023-02-22T00:27:39;7.40;99.90
8261;DHT22;64115;50.170;8.242;2023-02-22T00:30:12;7.40;99.90
8261;DHT22;64115;50.170;8.242;2023-02-22T00:32:39;7.40;99.90
8261;DHT22;64115;50.170;8.242;2023-02-22T00:35:08;7.50;99.90
8261;DHT22;64115;50.170;8.242;2023-02-22T00:37:35;7.50;99.90
8261;DHT22;64115;50.170;8.242;2023-02-22T00:40:07;7.60;99.90
8261;DHT22;64115;50.170;8.242;2023-02-22T00:42:34;7.60;99.90
8261;DHT22;64115;50.170;8.242;2023-02-22T00:45:01;7.60;99.90
8261;DHT22;64115;50.170;8.242;2023-02-22T00:47:30;7.50;99.90
8261;DHT22;64115;50.170;8.242;2023-02-22T00:49:57;7.40;99.90
8261;DHT22;64115;50.170;8.242;2023-02-22T00:52:25;7.30;99.90
8261;DHT22;64115;50.170;8.242;2023-02-22T00:54:52;7.20;99.90
8261;DHT22;64115;50.170;8.242;2023-02-22T00:57:19;7.10;99.90
8261;DHT22;64115;50.170;8.242;2023-02-22T00:59:46;6.90;99.90
8261;DHT22;64115;50.170;8.242;2023-02-22T01:02:14;6.80;99.90
8261;DHT22;64115;50.170;8.242;2023-02-22T01:04:42;6.70;99.90
8261;DHT22;64115;50.170;8.242;2023-02-22T01:07:09;6.50;99.90
8261;DHT22;64115;50.170;8.242;2023-02-22T01:09:36;6.50;99.90
8261;DHT22;64115;50.170;8.242;2023-02-22T01:12:04;6.60;99.90
8261;DHT22;64115;50.170;8.242;2023-02-22T01:14:32;6.50;99.90
8261;DHT22;64115;50.170;8.242;2023-02-22T01:17:00;6.50;99.90
8261;DHT22;64115;50.170;8.242;2023-02-22T01:19:27;6.50;99.90
8261;DHT22;64115;50.170;8.242;2023-02-22T01:21:55;6.40;99.90
8261;DHT22;64115;50.170;8.242;2023-02-22T01:24:23;6.30;99.90
8261;DHT22;64115;50.170;8.242;2023-02-22T01:26:51;6.20;99.90
8261;DHT22;64115;50.170;8.242;2023-02-22T01:29:19;6.10;99.90
8261;DHT22;64115;50.170;8.242;2023-02-22T01:31:51;6.10;99.90
8261;DHT22;64115;50.170;8.242;2023-02-22T01:34:20;6.00;99.90
8261;DHT22;64115;50.170;8.242;2023-02-22T01:36:47;6.10;99.90
8261;DHT22;64115;50.170;8.242;2023-02-22T01:39:16;6.00;99.90
8261;DHT22;64115;50.170;8.242;2023-02-22T01:41:43;6.00;99.90
8261;DHT22;64115;50.170;8.242;2023-02-22T01:44:19;6.10;99.90
8261;DHT22;64115;50.170;8.242;2023-02-22T01:46:46;6.00;99.90
8261;DHT22;64115;50.170;8.242;2023-02-22T01:49:13;5.90;99.90
8261;DHT22;64115;50.170;8.242;2023-02-22T01:51:42;5.90;99.90
8261;DHT22;64115;50.170;8.242;2023-02-22T01:54:15;6.10;99.90
8261;DHT22;64115;50.170;8.242;2023-02-22T01:56:47;6.10;99.90
8261;DHT22;64115;50.170;8.242;2023-02-22T01:59:18;6.10;99.90
8261;DHT22;64115;50.170;8.242;2023-02-22T02:01:46;6.00;99.90
8261;DHT22;64115;50.170;8.242;2023-02-22T02:04:18;6.10;99.90
8261;DHT22;64115;50.170;8.242;2023-02-22T02:06:46;6.20;99.90
8261;DHT22;64115;50.170;8.242;2023-02-22T02:09:20;6.20;99.90
8261;DHT22;64115;50.170;8.242;2023-02-22T02:11:49;6.20;99.90
8261;DHT22;64115;50.170;8.242;2023-02-22T02:14:16;6.10;99.90
8261;DHT22;64115;50.170;8.242;2023-02-22T02:16:45;6.10;99.90
8261;DHT22;64115;50.170;8.242;2023-02-22T02:19:19;6.00;99.90
8261;DHT22;64115;50.170;8.242;2023-02-22T02:22:20;6.10;99.90
8261;DHT22;64115;50.170;8.242;2023-02-22T02:34:15;6.00;99.90
8261;DHT22;64115;50.170;8.242;2023-02-22T02:37:01;6.10;99.90
8261;DHT22;64115;50.170;8.242;2023-02-22T02:39:35;6.10;99.90
8261;DHT22;64115;50.170;8.242;2023-02-22T02:42:07;6.20;99.90
8261;DHT22;64115;50.170;8.242;2023-02-22T02:44:40;6.10;99.90
8261;DHT22;64115;50.170;8.242;2023-02-22T02:47:12;6.10;99.90
8261;DHT22;64115;50.170;8.242;2023-02-22T02:49:46;6.10;99.90
8261;DHT22;64115;50.170;8.242;2023-02-22T02:52:14;6.10;99.90
8261;DHT22;64115;50.170;8.242;2023-02-22T02:54:42;6.20;99.90
8261;DHT22;64115;50.170;8.242;2023-02-22T02:57:10;6.30;99.90
8261;DHT22;64115;50.170;8.242;2023-02-22T02:59:38;6.20;99.90
8261;DHT22;64115;50.170;8.242;2023-02-22T03:02:19;6.30;99.90
8261;DHT22;64115;50.170;8.242;2023-02-22T03:05:10;6.30;99.90
8261;DHT22;64115;50.170;8.242;2023-02-22T03:07:47;6.40;99.90
8261;DHT22;64115;50.170;8.242;2023-02-22T03:10:26;6.40;99.90
8261;DHT22;64115;50.170;8.242;2023-02-22T03:13:02;6.50;99.90
8261;DHT22;64115;50.170;8.242;2023-02-22T03:15:36;6.50;99.90
8261;DHT22;64115;50.170;8.242;2023-02-22T03:18:12;6.50;99.90
8261;DHT22;64115;50.170;8.242;2023-02-22T03:20:47;6.60;99.90
8261;DHT22;64115;50.170;8.242;2023-02-22T03:23:21;6.50;99.90
8261;DHT22;64115;50.170;8.242;2023-02-22T03:25:54;6.60;99.90
8261;DHT22;64115;50.170;8.242;2023-02-22T03:28:24;6.60;99.90
8261;DHT22;64115;50.170;8.242;2023-02-22T03:30:55;6.50;99.90
8261;DHT22;64115;50.170;8.242;2023-02-22T03:33:29;6.40;99.90
8261;DHT22;64115;50.170;8.242;2023-02-22T03:36:06;6.30;99.90
8261;DHT22;64115;50.170;8.242;2023-02-22T03:38:36;6.30;99.90
8261;DHT22;64115;50.170;8.242;2023-02-22T03:41:11;6.20;99.90
8261;DHT22;64115;50.170;8.242;2023-02-22T03:43:42;6.20;99.90
8261;DHT22;64115;50.170;8.242;2023-02-22T03:46:11;6.10;99.90
8261;DHT22;64115;50.170;8.242;2023-02-22T03:48:45;6.10;99.90
8261;DHT22;64115;50.170;8.242;2023-02-22T03:51:14;6.10;99.90
8261;DHT22;64115;50.170;8.242;2023-02-22T03:53:42;6.10;99.90
8261;DHT22;64115;50.170;8.242;2023-02-22T03:56:14;6.00;99.90
8261;DHT22;64115;50.170;8.242;2023-02-22T03:58:45;6.00;99.90
8261;DHT22;64115;50.170;8.242;2023-02-22T04:01:13;5.90;99.90
8261;DHT22;64115;50.170;8.242;2023-02-22T04:03:40;5.90;99.90
8261;DHT22;64115;50.170;8.242;2023-02-22T04:06:09;6.00;99.90
8261;DHT22;64115;50.170;8.242;2023-02-22T04:08:37;6.00;99.90
8261;DHT22;64115;50.170;8.242;2023-02-22T04:11:04;6.00;99.90
8261;DHT22;64115;50.170;8.242;2023-02-22T04:13:32;5.90;99.90
8261;DHT22;64115;50.170;8.242;2023-02-22T04:15:58;5.90;99.90
8261;DHT22;64115;50.170;8.242;2023-02-22T04:18:25;5.80;99.90
8261;DHT22;64115;50.170;8.242;2023-02-22T04:20:52;5.70;99.90
8261;DHT22;64115;50.170;8.242;2023-02-22T04:23:19;5.70;99.90
8261;DHT22;64115;50.170;8.242;2023-02-22T04:25:48;5.60;99.90
8261;DHT22;64115;50.170;8.242;2023-02-22T04:28:15;5.60;99.90
8261;DHT22;64115;50.170;8.242;2023-02-22T04:30:42;5.60;99.90
8261;DHT22;64115;50.170;8.242;2023-02-22T04:33:10;5.50;99.90
8261;DHT22;64115;50.170;8.242;2023-02-22T04:35:37;5.50;99.90
8261;DHT22;64115;50.170;8.242;2023-02-22T04:38:04;5.40;99.90
8261;DHT22;64115;50.170;8.242;2023-02-22T04:40:34;5.30;99.90
8261;DHT22;64115;50.170;8.242;2023-02-22T04:43:02;5.30;99.90
8261;DHT22;64115;50.170;8.242;2023-02-22T04:45:30;5.30;99.90
8261;DHT22;64115;50.170;8.242;2023-02-22T04:47:57;5.20;99.90
8261;DHT22;64115;50.170;8.242;2023-02-22T04:50:24;5.10;99.90
8261;DHT22;64115;50.170;8.242;2023-02-22T04:52:51;5.10;99.90
8261;DHT22;64115;50.170;8.242;2023-02-22T04:55:18;5.00;99.90
8261;DHT22;64115;50.170;8.242;2023-02-22T04:57:45;5.00;99.90
8261;DHT22;64115;50.170;8.242;2023-02-22T05:00:17;5.00;99.90
8261;DHT22;64115;50.170;8.242;2023-02-22T05:02:46;5.00;99.90
8261;DHT22;64115;50.170;8.242;2023-02-22T05:05:14;4.90;99.90
8261;DHT22;64115;50.170;8.242;2023-02-22T05:07:41;4.90;99.90
8261;DHT22;64115;50.170;8.242;2023-02-22T05:10:09;4.80;99.90
8261;DHT22;64115;50.170;8.242;2023-02-22T05:12:36;4.80;99.90
8261;DHT22;64115;50.170;8.242;2023-02-22T05:15:05;4.80;99.90
8261;DHT22;64115;50.170;8.242;2023-02-22T05:17:35;4.70;99.90
8261;DHT22;64115;50.170;8.242;2023-02-22T05:20:03;4.70;99.90
8261;DHT22;64115;50.170;8.242;2023-02-22T05:22:30;4.70;99.90
8261;DHT22;64115;50.170;8.242;2023-02-22T05:24:57;4.70;99.90
8261;DHT22;64115;50.170;8.242;2023-02-22T05:27:24;4.80;99.90
8261;DHT22;64115;50.170;8.242;2023-02-22T05:29:51;4.80;99.90
8261;DHT22;64115;50.170;8.242;2023-02-22T05:32:18;4.70;99.90
8261;DHT22;64115;50.170;8.242;2023-02-22T05:34:47;4.70;99.90
8261;DHT22;64115;50.170;8.242;2023-02-22T05:37:14;4.70;99.90
8261;DHT22;64115;50.170;8.242;2023-02-22T05:39:41;4.80;99.90
8261;DHT22;64115;50.170;8.242;2023-02-22T05:42:11;4.80;99.90
8261;DHT22;64115;50.170;8.242;2023-02-22T05:44:37;4.80;99.90
8261;DHT22;64115;50.170;8.242;2023-02-22T05:47:04;4.70;99.90
8261;DHT22;64115;50.170;8.242;2023-02-22T05:49:31;4.70;99.90
8261;DHT22;64115;50.170;8.242;2023-02-22T05:52:00;4.70;99.90
8261;DHT22;64115;50.170;8.242;2023-02-22T05:54:27;4.60;99.90
8261;DHT22;64115;50.170;8.242;2023-02-22T05:56:54;4.60;99.90
8261;DHT22;64115;50.170;8.242;2023-02-22T05:59:21;4.60;99.90
8261;DHT22;64115;50.170;8.242;2023-02-22T06:01:48;4.60;99.90
8261;DHT22;64115;50.170;8.242;2023-02-22T06:04:15;4.50;99.90
8261;DHT22;64115;50.170;8.242;2023-02-22T06:06:42;4.50;99.90
8261;DHT22;64115;50.170;8.242;2023-02-22T06:09:11;4.40;99.90
8261;DHT22;64115;50.170;8.242;2023-02-22T06:11:39;4.40;99.90
8261;DHT22;64115;50.170;8.242;2023-02-22T06:14:05;4.40;99.90
8261;DHT22;64115;50.170;8.242;2023-02-22T06:16:33;4.40;99.90
8261;DHT22;64115;50.170;8.242;2023-02-22T06:19:00;4.40;99.90
8261;DHT22;64115;50.170;8.242;2023-02-22T06:21:27;4.50;99.90
8261;DHT22;64115;50.170;8.242;2023-02-22T06:23:54;4.50;99.90
8261;DHT22;64115;50.170;8.242;2023-02-22T06:26:22;4.50;99.90
8261;DHT22;64115;50.170;8.242;2023-02-22T06:28:49;4.50;99.90
8261;DHT22;64115;50.170;8.242;2023-02-22T06:31:16;4.50;99.90
8261;DHT22;64115;50.170;8.242;2023-02-22T06:33:43;4.60;99.90
8261;DHT22;64115;50.170;8.242;2023-02-22T06:36:10;4.60;99.90
8261;DHT22;64115;50.170;8.242;2023-02-22T06:38:37;4.60;99.90
8261;DHT22;64115;50.170;8.242;2023-02-22T06:41:04;4.60;99.90
8261;DHT22;64115;50.170;8.242;2023-02-22T06:43:33;4.60;99.90
8261;DHT22;64115;50.170;8.242;2023-02-22T06:46:00;4.60;99.90
8261;DHT22;64115;50.170;8.242;2023-02-22T06:48:26;4.70;99.90
8261;DHT22;64115;50.170;8.242;2023-02-22T06:50:53;4.90;99.90
8261;DHT22;64115;50.170;8.242;2023-02-22T06:53:20;4.90;99.90
8261;DHT22;64115;50.170;8.242;2023-02-22T06:55:47;5.00;99.90
8261;DHT22;64115;50.170;8.242;2023-02-22T06:58:14;5.00;99.90
8261;DHT22;64115;50.170;8.242;2023-02-22T07:00:42;5.00;99.90
8261;DHT22;64115;50.170;8.242;2023-02-22T07:03:10;5.10;99.90
8261;DHT22;64115;50.170;8.242;2023-02-22T07:05:38;5.10;99.90
8261;DHT22;64115;50.170;8.242;2023-02-22T07:08:06;5.10;99.90
8261;DHT22;64115;50.170;8.242;2023-02-22T07:10:35;5.10;99.90
8261;DHT22;64115;50.170;8.242;2023-02-22T07:13:03;5.10;99.90
8261;DHT22;64115;50.170;8.242;2023-02-22T07:15:31;5.10;99.90
8261;DHT22;64115;50.170;8.242;2023-02-22T07:18:00;5.20;99.90
8261;DHT22;64115;50.170;8.242;2023-02-22T07:20:29;5.20;99.90
8261;DHT22;64115;50.170;8.242;2023-02-22T07:22:56;5.30;99.90
8261;DHT22;64115;50.170;8.242;2023-02-22T07:25:23;5.30;99.90
8261;DHT22;64115;50.170;8.242;2023-02-22T07:27:51;5.40;99.90
8261;DHT22;64115;50.170;8.242;2023-02-22T07:30:19;5.50;99.90
8261;DHT22;64115;50.170;8.242;2023-02-22T07:32:50;5.60;99.90
8261;DHT22;64115;50.170;8.242;2023-02-22T07:35:21;5.80;99.90
8261;DHT22;64115;50.170;8.242;2023-02-22T07:37:48;6.00;99.90
8261;DHT22;64115;50.170;8.242;2023-02-22T07:40:16;6.30;99.90
8261;DHT22;64115;50.170;8.242;2023-02-22T07:42:54;6.50;99.90
8261;DHT22;64115;50.170;8.242;2023-02-22T07:45:22;6.70;99.90
8261;DHT22;64115;50.170;8.242;2023-02-22T07:47:49;6.90;99.90
8261;DHT22;64115;50.170;8.242;2023-02-22T07:50:19;7.00;99.90
8261;DHT22;64115;50.170;8.242;2023-02-22T07:52:47;7.20;99.90
8261;DHT22;64115;50.170;8.242;2023-02-22T07:55:16;7.40;99.90
8261;DHT22;64115;50.170;8.242;2023-02-22T07:57:44;7.50;99.90
8261;DHT22;64115;50.170;8.242;2023-02-22T08:00:13;7.70;99.90
8261;DHT22;64115;50.170;8.242;2023-02-22T08:02:41;7.80;99.90
8261;DHT22;64115;50.170;8.242;2023-02-22T08:05:09;7.80;99.90
8261;DHT22;64115;50.170;8.242;2023-02-22T08:07:41;7.80;99.90
8261;DHT22;64115;50.170;8.242;2023-02-22T08:10:09;7.60;99.90
8261;DHT22;64115;50.170;8.242;2023-02-22T08:12:37;7.70;99.90
8261;DHT22;64115;50.170;8.242;2023-02-22T08:15:05;7.70;99.90
8261;DHT22;64115;50.170;8.242;2023-02-22T08:17:32;7.80;99.90
8261;DHT22;64115;50.170;8.242;2023-02-22T08:19:59;7.90;99.90
8261;DHT22;64115;50.170;8.242;2023-02-22T08:22:26;8.00;99.90
8261;DHT22;64115;50.170;8.242;2023-02-22T08:24:55;8.10;99.90
8261;DHT22;64115;50.170;8.242;2023-02-22T08:27:23;8.20;99.90
8261;DHT22;64115;50.170;8.242;2023-02-22T08:29:51;8.30;99.90
8261;DHT22;64115;50.170;8.242;2023-02-22T08:32:19;8.40;99.90
8261;DHT22;64115;50.170;8.242;2023-02-22T08:34:46;8.50;99.90
8261;DHT22;64115;50.170;8.242;2023-02-22T08:37:13;8.80;99.90
8261;DHT22;64115;50.170;8.242;2023-02-22T08:39:40;8.90;99.90
8261;DHT22;64115;50.170;8.242;2023-02-22T08:42:09;9.10;99.90
8261;DHT22;64115;50.170;8.242;2023-02-22T08:44:37;9.20;99.90
8261;DHT22;64115;50.170;8.242;2023-02-22T08:47:05;9.40;99.90
8261;DHT22;64115;50.170;8.242;2023-02-22T08:49:32;9.40;99.90
8261;DHT22;64115;50.170;8.242;2023-02-22T08:51:59;9.60;99.90
8261;DHT22;64115;50.170;8.242;2023-02-22T08:54:26;9.70;99.90
8261;DHT22;64115;50.170;8.242;2023-02-22T08:56:53;9.80;99.90
8261;DHT22;64115;50.170;8.242;2023-02-22T08:59:22;9.90;99.90
8261;DHT22;64115;50.170;8.242;2023-02-22T09:01:49;10.00;99.90
8261;DHT22;64115;50.170;8.242;2023-02-22T09:04:16;10.00;99.90
8261;DHT22;64115;50.170;8.242;2023-02-22T09:06:43;10.10;99.90
8261;DHT22;64115;50.170;8.242;2023-02-22T09:09:16;10.00;99.90
8261;DHT22;64115;50.170;8.242;2023-02-22T09:11:46;10.10;99.90
8261;DHT22;64115;50.170;8.242;2023-02-22T09:14:13;10.10;99.90
8261;DHT22;64115;50.170;8.242;2023-02-22T09:16:42;10.10;99.90
8261;DHT22;64115;50.170;8.242;2023-02-22T09:19:09;10.10;99.90
8261;DHT22;64115;50.170;8.242;2023-02-22T09:21:36;10.10;99.90
8261;DHT22;64115;50.170;8.242;2023-02-22T09:24:05;10.20;99.90
8261;DHT22;64115;50.170;8.242;2023-02-22T09:26:34;10.20;99.90
8261;DHT22;64115;50.170;8.242;2023-02-22T09:29:04;10.20;99.90
8261;DHT22;64115;50.170;8.242;2023-02-22T09:31:33;10.30;99.90
8261;DHT22;64115;50.170;8.242;2023-02-22T09:34:03;10.40;99.90
8261;DHT22;64115;50.170;8.242;2023-02-22T09:36:31;10.50;99.90
8261;DHT22;64115;50.170;8.242;2023-02-22T09:38:58;10.50;99.90
8261;DHT22;64115;50.170;8.242;2023-02-22T09:41:28;10.50;99.90
8261;DHT22;64115;50.170;8.242;2023-02-22T09:44:10;10.70;99.90
8261;DHT22;64115;50.170;8.242;2023-02-22T09:46:41;10.80;99.90
8261;DHT22;64115;50.170;8.242;2023-02-22T09:49:19;10.90;99.90
8261;DHT22;64115;50.170;8.242;2023-02-22T09:51:49;11.00;99.90
8261;DHT22;64115;50.170;8.242;2023-02-22T09:54:21;11.20;99.90
8261;DHT22;64115;50.170;8.242;2023-02-22T09:56:52;11.20;99.90
8261;DHT22;64115;50.170;8.242;2023-02-22T09:59:24;11.30;99.90
8261;DHT22;64115;50.170;8.242;2023-02-22T10:01:58;11.30;99.90
8261;DHT22;64115;50.170;8.242;2023-02-22T10:04:37;11.30;99.90
8261;DHT22;64115;50.170;8.242;2023-02-22T10:07:14;11.50;99.90
8261;DHT22;64115;50.170;8.242;2023-02-22T10:09:45;11.60;99.90
8261;DHT22;64115;50.170;8.242;2023-02-22T10:12:22;11.80;99.90
8261;DHT22;64115;50.170;8.242;2023-02-22T10:15:20;11.80;99.90
8261;DHT22;64115;50.170;8.242;2023-02-22T10:17:54;11.50;99.90
8261;DHT22;64115;50.170;8.242;2023-02-22T10:20:38;11.40;99.90
8261;DHT22;64115;50.170;8.242;2023-02-22T10:23:13;11.40;99.90
8261;DHT22;64115;50.170;8.242;2023-02-22T10:25:43;11.10;99.90
8261;DHT22;64115;50.170;8.242;2023-02-22T10:28:15;11.10;99.90
8261;DHT22;64115;50.170;8.242;2023-02-22T10:30:49;11.30;99.90
8261;DHT22;64115;50.170;8.242;2023-02-22T10:33:21;11.20;99.90
8261;DHT22;64115;50.170;8.242;2023-02-22T10:35:53;11.30;99.90
8261;DHT22;64115;50.170;8.242;2023-02-22T10:38:23;11.40;99.90
8261;DHT22;64115;50.170;8.242;2023-02-22T10:40:55;11.40;99.90
8261;DHT22;64115;50.170;8.242;2023-02-22T10:43:24;11.50;99.90
8261;DHT22;64115;50.170;8.242;2023-02-22T10:45:54;11.60;99.90
8261;DHT22;64115;50.170;8.242;2023-02-22T10:48:24;11.30;99.90
8261;DHT22;64115;50.170;8.242;2023-02-22T10:50:57;11.30;99.90
8261;DHT22;64115;50.170;8.242;2023-02-22T10:53:27;11.30;99.90
8261;DHT22;64115;50.170;8.242;2023-02-22T10:56:05;11.30;99.90
8261;DHT22;64115;50.170;8.242;2023-02-22T10:58:40;11.20;99.90
8261;DHT22;64115;50.170;8.242;2023-02-22T11:01:18;11.20;99.90
8261;DHT22;64115;50.170;8.242;2023-02-22T11:03:59;11.30;99.90
8261;DHT22;64115;50.170;8.242;2023-02-22T11:06:28;11.20;99.90
8261;DHT22;64115;50.170;8.242;2023-02-22T11:09:08;11.00;99.90
8261;DHT22;64115;50.170;8.242;2023-02-22T11:11:36;10.80;99.90
8261;DHT22;64115;50.170;8.242;2023-02-22T11:14:04;10.90;99.90
8261;DHT22;64115;50.170;8.242;2023-02-22T11:16:36;11.00;99.90
8261;DHT22;64115;50.170;8.242;2023-02-22T11:19:16;11.00;99.90
8261;DHT22;64115;50.170;8.242;2023-02-22T11:21:47;11.00;99.90
8261;DHT22;64115;50.170;8.242;2023-02-22T11:24:18;11.00;99.90
8261;DHT22;64115;50.170;8.242;2023-02-22T11:26:48;11.20;99.90
8261;DHT22;64115;50.170;8.242;2023-02-22T11:29:19;11.30;99.90
8261;DHT22;64115;50.170;8.242;2023-02-22T11:31:48;11.40;99.90
8261;DHT22;64115;50.170;8.242;2023-02-22T11:34:34;11.30;99.90
8261;DHT22;64115;50.170;8.242;2023-02-22T11:37:30;11.20;99.90
8261;DHT22;64115;50.170;8.242;2023-02-22T11:40:14;11.10;99.90
8261;DHT22;64115;50.170;8.242;2023-02-22T11:42:47;11.10;99.90
8261;DHT22;64115;50.170;8.242;2023-02-22T11:45:16;11.10;99.90
8261;DHT22;64115;50.170;8.242;2023-02-22T11:47:51;11.20;99.90
8261;DHT22;64115;50.170;8.242;2023-02-22T11:50:25;11.40;99.90
8261;DHT22;64115;50.170;8.242;2023-02-22T11:53:11;11.50;99.90
8261;DHT22;64115;50.170;8.242;2023-02-22T11:55:46;11.40;99.90
8261;DHT22;64115;50.170;8.242;2023-02-22T11:58:26;11.60;99.90
8261;DHT22;64115;50.170;8.242;2023-02-22T12:00:59;11.80;99.90
8261;DHT22;64115;50.170;8.242;2023-02-22T12:06:38;12.20;99.90
8261;DHT22;64115;50.170;8.242;2023-02-22T12:09:13;12.20;99.90
8261;DHT22;64115;50.170;8.242;2023-02-22T12:11:55;12.00;99.90
8261;DHT22;64115;50.170;8.242;2023-02-22T12:14:30;11.90;99.90
8261;DHT22;64115;50.170;8.242;2023-02-22T12:17:12;11.90;99.90
8261;DHT22;64115;50.170;8.242;2023-02-22T12:19:47;12.00;99.90
8261;DHT22;64115;50.170;8.242;2023-02-22T12:22:18;12.20;99.90
8261;DHT22;64115;50.170;8.242;2023-02-22T12:24:54;12.30;99.90
8261;DHT22;64115;50.170;8.242;2023-02-22T12:27:27;12.20;99.90
8261;DHT22;64115;50.170;8.242;2023-02-22T12:29:59;12.30;99.90
8261;DHT22;64115;50.170;8.242;2023-02-22T12:32:31;12.20;99.90
8261;DHT22;64115;50.170;8.242;2023-02-22T12:35:10;12.20;99.90
8261;DHT22;64115;50.170;8.242;2023-02-22T12:37:49;12.00;99.90
8261;DHT22;64115;50.170;8.242;2023-02-22T12:40:25;12.00;99.90
8261;DHT22;64115;50.170;8.242;2023-02-22T12:42:58;11.90;99.90
8261;DHT22;64115;50.170;8.242;2023-02-22T12:45:31;11.80;99.90
8261;DHT22;64115;50.170;8.242;2023-02-22T12:48:11;11.60;99.90
8261;DHT22;64115;50.170;8.242;2023-02-22T12:50:43;11.60;99.90
8261;DHT22;64115;50.170;8.242;2023-02-22T12:53:16;11.60;99.90
8261;DHT22;64115;50.170;8.242;2023-02-22T12:55:50;11.70;99.90
8261;DHT22;64115;50.170;8.242;2023-02-22T12:58:20;11.80;99.90
8261;DHT22;64115;50.170;8.242;2023-02-22T13:00:56;12.00;99.90
8261;DHT22;64115;50.170;8.242;2023-02-22T13:03:32;12.10;99.90
8261;DHT22;64115;50.170;8.242;2023-02-22T13:09:04;12.40;99.90
8261;DHT22;64115;50.170;8.242;2023-02-22T13:11:37;12.40;99.90
8261;DHT22;64115;50.170;8.242;2023-02-22T13:14:15;12.30;99.90
8261;DHT22;64115;50.170;8.242;2023-02-22T13:16:50;12.20;99.90
8261;DHT22;64115;50.170;8.242;2023-02-22T13:19:33;11.90;99.90
8261;DHT22;64115;50.170;8.242;2023-02-22T13:22:07;11.80;99.90
8261;DHT22;64115;50.170;8.242;2023-02-22T13:24:55;11.80;99.90
8261;DHT22;64115;50.170;8.242;2023-02-22T13:27:29;11.80;99.90
8261;DHT22;64115;50.170;8.242;2023-02-22T13:29:59;11.80;99.90
8261;DHT22;64115;50.170;8.242;2023-02-22T13:32:37;11.60;99.90
8261;DHT22;64115;50.170;8.242;2023-02-22T13:35:27;11.60;99.90
8261;DHT22;64115;50.170;8.242;2023-02-22T13:38:48;11.70;99.90
8261;DHT22;64115;50.170;8.242;2023-02-22T13:48:01;11.90;99.90
8261;DHT22;64115;50.170;8.242;2023-02-22T13:50:51;11.70;99.90
8261;DHT22;64115;50.170;8.242;2023-02-22T13:53:46;11.50;99.90
8261;DHT22;64115;50.170;8.242;2023-02-22T13:56:15;11.20;99.90
8261;DHT22;64115;50.170;8.242;2023-02-22T13:58:52;11.30;99.90
8261;DHT22;64115;50.170;8.242;2023-02-22T14:01:53;11.30;99.90
8261;DHT22;64115;50.170;8.242;2023-02-22T14:07:44;11.40;99.90
8261;DHT22;64115;50.170;8.242;2023-02-22T14:10:43;11.20;99.90
8261;DHT22;64115;50.170;8.242;2023-02-22T14:13:11;11.30;99.90
8261;DHT22;64115;50.170;8.242;2023-02-22T14:16:16;11.30;99.90
8261;DHT22;64115;50.170;8.242;2023-02-22T14:18:45;11.10;99.90
8261;DHT22;64115;50.170;8.242;2023-02-22T14:21:17;11.00;99.90
8261;DHT22;64115;50.170;8.242;2023-02-22T14:23:46;11.00;99.90
8261;DHT22;64115;50.170;8.242;2023-02-22T14:26:17;10.90;99.90
8261;DHT22;64115;50.170;8.242;2023-02-22T14:28:51;10.80;99.90
8261;DHT22;64115;50.170;8.242;2023-02-22T14:31:21;10.70;99.90
8261;DHT22;64115;50.170;8.242;2023-02-22T14:33:51;10.60;99.90
8261;DHT22;64115;50.170;8.242;2023-02-22T14:36:21;10.60;99.90
8261;DHT22;64115;50.170;8.242;2023-02-22T14:38:50;10.50;99.90
8261;DHT22;64115;50.170;8.242;2023-02-22T14:41:20;10.50;99.90
8261;DHT22;64115;50.170;8.242;2023-02-22T14:43:52;10.50;99.90
8261;DHT22;64115;50.170;8.242;2023-02-22T14:46:22;10.50;99.90
8261;DHT22;64115;50.170;8.242;2023-02-22T14:48:55;10.40;99.90
8261;DHT22;64115;50.170;8.242;2023-02-22T14:51:29;10.50;99.90
8261;DHT22;64115;50.170;8.242;2023-02-22T14:54:02;10.50;99.90
8261;DHT22;64115;50.170;8.242;2023-02-22T14:56:36;10.50;99.90
8261;DHT22;64115;50.170;8.242;2023-02-22T14:59:14;10.50;99.90
8261;DHT22;64115;50.170;8.242;2023-02-22T15:01:42;10.60;99.90
8261;DHT22;64115;50.170;8.242;2023-02-22T15:04:20;10.70;99.90
8261;DHT22;64115;50.170;8.242;2023-02-22T15:06:49;10.70;99.90
8261;DHT22;64115;50.170;8.242;2023-02-22T15:09:17;10.70;99.90
8261;DHT22;64115;50.170;8.242;2023-02-22T15:11:49;10.70;99.90
8261;DHT22;64115;50.170;8.242;2023-02-22T15:14:19;10.70;99.90
8261;DHT22;64115;50.170;8.242;2023-02-22T15:16:49;10.60;99.90
8261;DHT22;64115;50.170;8.242;2023-02-22T15:19:19;10.60;99.90
8261;DHT22;64115;50.170;8.242;2023-02-22T15:21:52;10.50;99.90
8261;DHT22;64115;50.170;8.242;2023-02-22T15:24:23;10.50;99.90
8261;DHT22;64115;50.170;8.242;2023-02-22T15:26:51;10.40;99.90
8261;DHT22;64115;50.170;8.242;2023-02-22T15:29:21;10.30;99.90
8261;DHT22;64115;50.170;8.242;2023-02-22T15:31:50;10.20;99.90
8261;DHT22;64115;50.170;8.242;2023-02-22T15:34:19;10.10;99.90
8261;DHT22;64115;50.170;8.242;2023-02-22T15:36:52;10.10;99.90
8261;DHT22;64115;50.170;8.242;2023-02-22T15:39:24;10.00;99.90
8261;DHT22;64115;50.170;8.242;2023-02-22T15:42:12;10.00;99.90
8261;DHT22;64115;50.170;8.242;2023-02-22T15:44:45;9.90;99.90
8261;DHT22;64115;50.170;8.242;2023-02-22T15:47:16;9.90;99.90
8261;DHT22;64115;50.170;8.242;2023-02-22T15:49:44;9.90;99.90
8261;DHT22;64115;50.170;8.242;2023-02-22T15:52:18;9.90;99.90
8261;DHT22;64115;50.170;8.242;2023-02-22T15:54:49;9.90;99.90
8261;DHT22;64115;50.170;8.242;2023-02-22T15:57:22;9.80;99.90
8261;DHT22;64115;50.170;8.242;2023-02-22T15:59:53;9.60;99.90
8261;DHT22;64115;50.170;8.242;2023-02-22T16:02:29;9.60;99.90
8261;DHT22;64115;50.170;8.242;2023-02-22T16:04:59;9.50;99.90
8261;DHT22;64115;50.170;8.242;2023-02-22T16:07:29;9.40;99.90
8261;DHT22;64115;50.170;8.242;2023-02-22T16:09:56;9.30;99.90
8261;DHT22;64115;50.170;8.242;2023-02-22T16:12:30;9.20;99.90
8261;DHT22;64115;50.170;8.242;2023-02-22T16:14:58;9.10;99.90
8261;DHT22;64115;50.170;8.242;2023-02-22T16:17:29;9.10;99.90
8261;DHT22;64115;50.170;8.242;2023-02-22T16:20:01;9.10;99.90
8261;DHT22;64115;50.170;8.242;2023-02-22T16:22:34;9.00;99.90
8261;DHT22;64115;50.170;8.242;2023-02-22T16:25:14;8.90;99.90
8261;DHT22;64115;50.170;8.242;2023-02-22T16:27:51;8.80;99.90
8261;DHT22;64115;50.170;8.242;2023-02-22T16:30:23;8.80;99.90
8261;DHT22;64115;50.170;8.242;2023-02-22T16:32:51;8.70;99.90
8261;DHT22;64115;50.170;8.242;2023-02-22T16:35:18;8.60;99.90
8261;DHT22;64115;50.170;8.242;2023-02-22T16:37:48;8.60;99.90
8261;DHT22;64115;50.170;8.242;2023-02-22T16:40:21;8.40;99.90
8261;DHT22;64115;50.170;8.242;2023-02-22T16:42:48;8.40;99.90
8261;DHT22;64115;50.170;8.242;2023-02-22T16:45:16;8.30;99.90